Time;durP1;ratioP1;P1;durP2;ratioP2;P2;SDS_P1;SDS_P2;PMS_P1;PMS_P2;Temp;Humidity;BMP_temperature;BMP_pressure;BME280_temperature;BME280_humidity;BME280_pressure;Samples;Min_cycle;Max_cycle;Signal;HPM_P1;HPM_P2
2022/07/17 00:01:47;;;;;;;1.92;1.25;;;21.60;54.90;;;;;;5009579;28;20054;-73
2022/07/17 00:04:15;;;;;;;2.65;1.30;;;21.60;54.90;;;;;;5009395;28;20069;-73
2022/07/17 00:06:42;;;;;;;2.05;1.17;;;21.50;54.90;;;;;;5009681;28;20056;-73
2022/07/17 00:09:09;;;;;;;4.03;1.25;;;21.50;54.90;;;;;;5010635;28;20137;-73
2022/07/17 00:11:36;;;;;;;2.85;1.10;;;21.50;54.90;;;;;;4995278;28;20498;-73
2022/07/17 00:14:02;;;;;;;1.88;1.08;;;21.50;54.90;;;;;;5009707;28;20249;-73
2022/07/17 00:16:29;;;;;;;1.73;1.30;;;21.50;54.80;;;;;;5009725;28;20491;-73
2022/07/17 00:18:56;;;;;;;1.98;1.20;;;21.40;54.80;;;;;;5009781;28;20056;-73
2022/07/17 00:21:25;;;;;;;1.70;1.23;;;21.50;54.80;;;;;;5010792;28;20398;-73
2022/07/17 00:23:54;;;;;;;2.65;1.25;;;21.50;54.90;;;;;;5008912;28;20144;-73
2022/07/17 00:26:21;;;;;;;3.00;1.10;;;21.50;54.90;;;;;;5013211;28;20061;-73
2022/07/17 00:28:48;;;;;;;2.78;1.10;;;21.40;54.80;;;;;;5014349;28;20049;-74
2022/07/17 00:31:14;;;;;;;2.90;1.30;;;21.40;54.80;;;;;;5014246;28;20265;-73
2022/07/17 00:33:42;;;;;;;1.75;1.13;;;21.40;54.80;;;;;;5013144;28;20133;-73
2022/07/17 00:36:09;;;;;;;3.97;1.20;;;21.40;54.80;;;;;;5013013;28;20058;-73
2022/07/17 00:38:38;;;;;;;1.95;1.00;;;21.40;54.80;;;;;;5012668;28;20133;-73
2022/07/17 00:41:04;;;;;;;4.57;1.30;;;22.40;57.10;;;;;;5013016;28;20108;-73
2022/07/17 00:43:31;;;;;;;1.70;1.20;;;21.40;54.90;;;;;;5013857;28;20092;-73
2022/07/17 00:45:58;;;;;;;1.38;1.10;;;21.40;54.90;;;;;;5013076;28;20168;-73
2022/07/17 00:48:25;;;;;;;1.77;1.20;;;21.30;54.80;;;;;;5012788;28;20144;-73
2022/07/17 00:50:52;;;;;;;2.97;1.30;;;21.30;55.40;;;;;;5012127;28;20133;-73
2022/07/17 00:53:19;;;;;;;2.35;1.30;;;21.40;54.80;;;;;;5012192;28;20064;-73
2022/07/17 00:55:48;;;;;;;1.98;0.98;;;21.30;54.80;;;;;;5012852;28;20089;-73
2022/07/17 00:58:18;;;;;;;2.65;1.27;;;21.30;54.80;;;;;;5012757;28;20089;-73
2022/07/17 01:00:45;;;;;;;2.75;1.20;;;21.30;54.70;;;;;;5012283;28;20061;-73
2022/07/17 01:03:12;;;;;;;1.67;1.20;;;21.30;54.80;;;;;;5012375;28;20064;-73
2022/07/17 01:05:39;;;;;;;2.25;1.20;;;21.30;54.80;;;;;;5012129;28;20089;-73
2022/07/17 01:08:06;;;;;;;1.88;1.17;;;21.30;54.80;;;;;;5012219;28;20506;-73
2022/07/17 01:10:32;;;;;;;3.65;1.20;;;21.10;54.90;;;;;;5012133;28;20137;-73
2022/07/17 01:13:01;;;;;;;2.67;1.40;;;21.20;54.70;;;;;;5011789;28;20054;-73
2022/07/17 01:15:28;;;;;;;1.75;1.20;;;21.20;54.70;;;;;;5012424;28;20149;-73
2022/07/17 01:17:55;;;;;;;1.40;1.30;;;21.20;54.70;;;;;;5012150;28;20058;-73
2022/07/17 01:20:22;;;;;;;3.40;1.40;;;21.20;54.70;;;;;;5011986;28;20132;-73
2022/07/17 01:22:51;;;;;;;3.72;1.33;;;21.20;54.80;;;;;;5011404;28;20053;-73
2022/07/17 01:25:20;;;;;;;1.73;1.15;;;21.20;54.80;;;;;;5011842;28;20144;-73
2022/07/17 01:27:47;;;;;;;2.58;1.15;;;21.10;54.70;;;;;;5012023;28;20060;-73
2022/07/17 01:30:14;;;;;;;2.13;1.25;;;21.10;54.80;;;;;;5011974;28;20050;-73
2022/07/17 01:32:42;;;;;;;2.47;1.30;;;21.10;54.80;;;;;;5011686;28;20060;-73
2022/07/17 01:35:10;;;;;;;2.00;1.30;;;21.10;54.80;;;;;;5011617;28;20080;-73
2022/07/17 01:37:38;;;;;;;1.67;1.10;;;21.10;54.80;;;;;;5011757;28;20062;-73
2022/07/17 01:40:07;;;;;;;2.47;1.23;;;21.10;54.80;;;;;;5011464;28;20071;-73
2022/07/17 01:42:34;;;;;;;1.95;1.27;;;21.00;54.80;;;;;;5011440;28;20133;-73
2022/07/17 01:45:01;;;;;;;2.03;1.40;;;21.10;54.80;;;;;;5011547;28;20060;-73
2022/07/17 01:47:27;;;;;;;2.42;1.30;;;21.00;54.80;;;;;;5011714;28;20088;-73
2022/07/17 01:49:55;;;;;;;1.95;1.30;;;21.10;56.90;;;;;;5011515;28;20125;-73
2022/07/17 01:52:22;;;;;;;1.92;1.23;;;21.00;54.80;;;;;;5011091;28;20483;-73
2022/07/17 01:54:49;;;;;;;2.88;1.20;;;21.00;54.80;;;;;;5010957;28;20054;-73
2022/07/17 01:57:18;;;;;;;2.15;1.20;;;21.00;54.80;;;;;;5012270;28;20046;-73
2022/07/17 01:59:44;;;;;;;2.13;1.13;;;21.00;54.80;;;;;;4994803;28;20056;-73
2022/07/17 02:02:11;;;;;;;3.20;1.42;;;21.00;55.40;;;;;;5012649;28;20050;-73
2022/07/17 02:04:41;;;;;;;1.73;1.10;;;21.00;54.80;;;;;;5010668;28;20140;-73
2022/07/17 02:07:08;;;;;;;2.38;1.20;;;20.90;54.70;;;;;;5011067;28;20057;-73
2022/07/17 02:09:35;;;;;;;1.13;1.00;;;21.00;54.80;;;;;;5011065;28;20053;-73
2022/07/17 02:12:02;;;;;;;1.67;1.17;;;20.90;54.70;;;;;;4995017;28;20054;-73
2022/07/17 02:14:30;;;;;;;2.00;1.27;;;20.90;54.70;;;;;;5010752;28;20069;-73
2022/07/17 02:16:57;;;;;;;2.80;1.33;;;20.90;54.70;;;;;;5011339;28;20160;-73
2022/07/17 02:19:28;;;;;;;1.42;1.20;;;20.90;54.80;;;;;;5012232;28;20053;-73
2022/07/17 02:21:55;;;;;;;1.77;1.40;;;20.80;54.70;;;;;;5010795;28;20046;-73
2022/07/17 02:24:21;;;;;;;2.10;1.30;;;20.90;54.80;;;;;;5010418;28;20578;-73
2022/07/17 02:26:48;;;;;;;2.03;1.35;;;20.80;54.70;;;;;;4994267;28;20133;-73
2022/07/17 02:29:15;;;;;;;2.13;1.40;;;20.90;56.80;;;;;;5010833;28;20064;-73
2022/07/17 02:31:43;;;;;;;1.70;1.20;;;20.80;54.70;;;;;;5010588;28;20523;-73
2022/07/17 02:34:10;;;;;;;1.65;1.20;;;20.80;54.70;;;;;;5010576;28;20064;-73
2022/07/17 02:36:37;;;;;;;1.48;1.17;;;20.80;54.70;;;;;;5010821;28;20411;-73
2022/07/17 02:39:04;;;;;;;1.75;1.30;;;20.80;54.70;;;;;;5010226;28;20096;-73
2022/07/17 02:41:30;;;;;;;1.73;1.20;;;20.80;54.70;;;;;;5010419;28;20068;-73
2022/07/17 02:43:57;;;;;;;1.60;1.10;;;20.80;55.30;;;;;;5010520;28;20068;-73
2022/07/17 02:46:24;;;;;;;3.00;1.60;;;20.80;54.70;;;;;;5010546;28;20050;-73
2022/07/17 02:48:52;;;;;;;2.08;1.35;;;20.80;54.80;;;;;;5010168;28;20070;-73
2022/07/17 02:51:19;;;;;;;2.58;1.63;;;20.80;54.70;;;;;;5011428;28;20060;-73
2022/07/17 02:53:45;;;;;;;2.03;1.30;;;20.80;54.80;;;;;;5011134;28;20056;-73
2022/07/17 02:56:12;;;;;;;3.45;1.20;;;20.80;54.80;;;;;;5011481;28;20128;-73
2022/07/17 02:58:39;;;;;;;2.40;1.40;;;20.70;54.70;;;;;;5011507;28;20121;-73
2022/07/17 03:01:06;;;;;;;3.83;1.42;;;20.80;54.80;;;;;;5010373;28;20128;-73
2022/07/17 03:03:32;;;;;;;2.10;1.30;;;20.70;54.70;;;;;;5010124;28;20176;-73
2022/07/17 03:06:01;;;;;;;1.67;1.40;;;20.70;54.70;;;;;;5009879;28;20060;-73
2022/07/17 03:08:27;;;;;;;1.60;1.20;;;20.70;54.70;;;;;;5010180;28;20060;-73
2022/07/17 03:10:54;;;;;;;3.00;1.40;;;20.30;54.60;;;;;;5010260;28;20072;-73
2022/07/17 03:13:21;;;;;;;2.10;1.63;;;20.70;54.80;;;;;;5009888;28;20069;-73
2022/07/17 03:15:47;;;;;;;1.55;1.20;;;20.80;54.80;;;;;;5011322;28;20511;-73
2022/07/17 03:18:14;;;;;;;2.05;1.17;;;20.70;54.80;;;;;;5010162;28;20128;-73
2022/07/17 03:20:41;;;;;;;1.77;1.10;;;20.70;54.80;;;;;;5009719;28;20080;-73
2022/07/17 03:23:09;;;;;;;1.30;1.10;;;20.60;54.70;;;;;;5009464;28;20068;-73
2022/07/17 03:25:36;;;;;;;1.88;1.35;;;20.60;56.70;;;;;;5010033;28;20053;-73
2022/07/17 03:28:03;;;;;;;1.73;1.30;;;20.60;54.70;;;;;;5009979;28;20153;-73
2022/07/17 03:30:30;;;;;;;1.77;1.50;;;20.50;54.90;;;;;;5009617;28;20081;-73
2022/07/17 03:32:57;;;;;;;2.65;1.40;;;20.60;54.70;;;;;;5009796;28;20138;-73
2022/07/17 03:35:23;;;;;;;1.95;1.23;;;20.60;54.70;;;;;;5010924;28;20050;-73
2022/07/17 03:37:50;;;;;;;2.47;1.30;;;20.60;54.70;;;;;;5009615;28;20064;-73
2022/07/17 03:40:18;;;;;;;1.92;1.08;;;20.60;54.70;;;;;;5010030;28;20133;-74
2022/07/17 03:42:45;;;;;;;2.03;1.10;;;19.30;56.20;;;;;;5009787;28;20568;-73
2022/07/17 03:45:11;;;;;;;2.67;1.30;;;20.50;54.70;;;;;;5010792;28;20048;-73
2022/07/17 03:47:38;;;;;;;2.83;1.25;;;20.50;54.70;;;;;;5009464;28;20422;-73
2022/07/17 03:50:06;;;;;;;1.88;1.17;;;20.50;54.70;;;;;;5010542;28;20085;-73
2022/07/17 03:52:32;;;;;;;1.67;1.23;;;20.50;54.60;;;;;;5010434;28;20068;-73
2022/07/17 03:54:59;;;;;;;2.55;1.23;;;20.50;54.70;;;;;;5011141;28;20388;-73
2022/07/17 03:57:27;;;;;;;1.70;1.30;;;20.50;54.70;;;;;;5010593;28;20133;-73
2022/07/17 03:59:54;;;;;;;1.73;1.42;;;20.50;54.70;;;;;;5012141;28;20050;-73
2022/07/17 04:02:21;;;;;;;2.88;1.40;;;20.50;54.70;;;;;;5014092;28;20525;-73
2022/07/17 04:04:48;;;;;;;1.58;1.20;;;20.50;54.60;;;;;;5014443;28;20061;-73
2022/07/17 04:07:27;;;;;;;2.92;1.40;;;20.50;54.60;;;;;;5013350;28;20140;-73
2022/07/17 04:09:55;;;;;;;1.40;1.30;;;20.50;54.60;;;;;;5013465;28;20061;-73
2022/07/17 04:12:22;;;;;;;2.13;1.30;;;20.40;54.50;;;;;;5013527;28;20402;-73
2022/07/17 04:14:50;;;;;;;2.15;1.30;;;20.40;54.60;;;;;;5013099;28;20061;-73
2022/07/17 04:17:17;;;;;;;1.90;1.40;;;20.50;54.70;;;;;;5013593;28;20479;-73
2022/07/17 04:19:44;;;;;;;1.90;1.20;;;20.50;54.70;;;;;;5014591;28;20057;-73
2022/07/17 04:22:11;;;;;;;1.45;1.20;;;20.40;54.60;;;;;;5014055;28;20828;-73
2022/07/17 04:24:37;;;;;;;1.95;1.23;;;20.40;54.60;;;;;;5014152;28;20082;-73
2022/07/17 04:27:04;;;;;;;2.08;1.25;;;20.40;54.60;;;;;;5013500;28;20058;-73
2022/07/17 04:29:31;;;;;;;2.05;1.10;;;20.40;54.60;;;;;;5014030;28;20046;-73
2022/07/17 04:31:59;;;;;;;1.83;1.20;;;20.40;54.60;;;;;;5012810;28;20133;-73
2022/07/17 04:34:26;;;;;;;2.97;1.25;;;20.40;54.60;;;;;;5012526;28;20128;-73
2022/07/17 04:36:52;;;;;;;1.23;1.08;;;20.40;54.70;;;;;;5014025;28;20054;-73
2022/07/17 04:39:19;;;;;;;2.17;1.30;;;20.40;54.70;;;;;;5013111;28;20140;-73
2022/07/17 04:41:46;;;;;;;2.60;1.20;;;20.40;54.70;;;;;;5012986;28;20056;-73
2022/07/17 04:44:13;;;;;;;3.20;1.20;;;22.20;55.70;;;;;;5012584;28;20491;-73
2022/07/17 04:46:39;;;;;;;1.90;1.30;;;20.40;54.70;;;;;;5012711;28;20054;-73
2022/07/17 04:49:07;;;;;;;1.50;1.10;;;20.40;54.70;;;;;;5012828;28;20422;-75
2022/07/17 04:51:34;;;;;;;2.22;1.50;;;20.40;54.70;;;;;;5012466;28;20503;-73
2022/07/17 04:54:01;;;;;;;1.80;1.23;;;20.40;54.70;;;;;;4996311;28;20487;-73
2022/07/17 04:56:28;;;;;;;1.98;1.10;;;20.40;55.00;;;;;;5012892;28;20153;-73
2022/07/17 04:58:54;;;;;;;2.67;1.20;;;20.40;54.70;;;;;;5012763;28;20049;-72
2022/07/17 05:01:21;;;;;;;2.10;1.10;;;20.40;57.00;;;;;;5012452;28;20128;-73
2022/07/17 05:03:48;;;;;;;1.40;1.10;;;20.40;54.70;;;;;;5013661;28;20450;-72
2022/07/17 05:06:16;;;;;;;1.65;1.27;;;19.80;56.30;;;;;;5012491;28;20065;-72
2022/07/17 05:08:43;;;;;;;1.25;1.00;;;20.90;56.90;;;;;;5012625;28;20164;-73
2022/07/17 05:11:10;;;;;;;2.78;1.10;;;20.40;54.70;;;;;;5011967;28;20467;-73
2022/07/17 05:13:36;;;;;;;1.40;1.05;;;20.40;54.70;;;;;;5012729;28;20052;-73
2022/07/17 05:16:03;;;;;;;2.10;1.20;;;20.40;54.80;;;;;;5013516;28;20129;-72
2022/07/17 05:18:30;;;;;;;1.88;1.20;;;20.40;54.70;;;;;;5013220;28;20133;-73
2022/07/17 05:20:57;;;;;;;1.50;1.10;;;20.40;54.70;;;;;;5013122;28;20050;-73
2022/07/17 05:23:25;;;;;;;1.48;1.20;;;20.40;54.70;;;;;;5013384;28;20562;-73
2022/07/17 05:25:51;;;;;;;2.13;1.20;;;20.30;54.70;;;;;;5012189;28;20064;-73
2022/07/17 05:28:18;;;;;;;1.35;1.17;;;20.40;54.80;;;;;;5013182;28;20487;-73
2022/07/17 05:30:45;;;;;;;1.58;1.20;;;20.40;54.80;;;;;;5013163;28;20117;-73
2022/07/17 05:33:11;;;;;;;2.00;1.33;;;20.40;54.70;;;;;;5012858;28;20075;-72
2022/07/17 05:35:38;;;;;;;1.50;1.13;;;20.40;54.80;;;;;;5012887;28;20129;-72
2022/07/17 05:38:06;;;;;;;1.70;1.20;;;20.40;54.80;;;;;;5012831;28;20068;-73
2022/07/17 05:40:34;;;;;;;1.55;1.10;;;20.40;54.70;;;;;;5012509;28;20128;-72
2022/07/17 05:43:01;;;;;;;2.88;1.17;;;20.40;54.70;;;;;;5011324;28;20062;-73
2022/07/17 05:45:27;;;;;;;1.45;1.15;;;20.40;54.80;;;;;;5012875;28;20052;-72
2022/07/17 05:47:54;;;;;;;2.58;1.27;;;20.40;54.80;;;;;;5012464;28;20733;-72
2022/07/17 05:50:21;;;;;;;1.70;1.17;;;20.40;55.00;;;;;;5011853;28;20060;-73
2022/07/17 05:52:48;;;;;;;2.50;1.02;;;20.40;54.80;;;;;;5011727;28;20058;-73
2022/07/17 05:55:14;;;;;;;1.27;1.10;;;20.40;54.80;;;;;;5012304;28;20046;-73
2022/07/17 05:57:43;;;;;;;1.70;1.05;;;20.40;55.40;;;;;;5010940;28;20141;-73
2022/07/17 06:00:11;;;;;;;1.70;1.00;;;20.40;54.80;;;;;;5012458;28;20046;-73
2022/07/17 06:02:37;;;;;;;1.27;1.00;;;20.40;54.70;;;;;;5012056;28;20164;-72
2022/07/17 06:05:05;;;;;;;2.05;1.00;;;20.40;54.80;;;;;;4995162;28;20052;-72
2022/07/17 06:07:32;;;;;;;1.33;1.05;;;20.40;54.80;;;;;;5011209;28;20133;-72
2022/07/17 06:09:58;;;;;;;1.23;1.10;;;20.40;54.70;;;;;;5011038;28;20050;-72
2022/07/17 06:12:25;;;;;;;1.30;0.90;;;20.50;54.80;;;;;;5011715;28;20046;-72
2022/07/17 06:14:53;;;;;;;1.83;1.30;;;20.40;54.70;;;;;;5010250;28;20060;-72
2022/07/17 06:17:20;;;;;;;1.45;1.05;;;20.50;54.70;;;;;;5010789;28;20058;-72
2022/07/17 06:19:46;;;;;;;1.48;1.15;;;20.60;54.80;;;;;;5010966;28;20133;-73
2022/07/17 06:22:13;;;;;;;1.27;1.00;;;20.70;54.70;;;;;;5011128;28;20054;-73
2022/07/17 06:24:40;;;;;;;1.30;1.05;;;20.80;54.70;;;;;;5010431;28;20061;-73
2022/07/17 06:27:07;;;;;;;1.40;1.00;;;21.00;54.70;;;;;;5007403;28;20132;-72
2022/07/17 06:29:33;;;;;;;2.03;1.20;;;21.10;54.60;;;;;;5010388;28;20049;-73
2022/07/17 06:32:02;;;;;;;1.77;1.10;;;21.20;54.40;;;;;;5011825;28;20060;-72
2022/07/17 06:34:29;;;;;;;1.30;0.95;;;21.40;54.40;;;;;;5008454;28;20060;-73
2022/07/17 06:36:56;;;;;;;1.42;1.10;;;21.50;54.20;;;;;;5011335;28;20125;-73
2022/07/17 06:39:22;;;;;;;1.13;1.00;;;21.60;54.00;;;;;;5011992;28;20492;-72
2022/07/17 06:41:49;;;;;;;1.35;1.00;;;21.80;56.20;;;;;;5011770;28;20125;-73
2022/07/17 06:44:16;;;;;;;1.50;1.08;;;21.90;53.70;;;;;;5010630;28;20060;-72
2022/07/17 06:46:43;;;;;;;1.38;1.20;;;21.90;53.50;;;;;;5009893;28;20236;-73
2022/07/17 06:49:11;;;;;;;1.20;1.00;;;22.10;53.40;;;;;;5011792;28;20484;-73
2022/07/17 06:51:37;;;;;;;3.58;1.05;;;22.10;53.20;;;;;;5010045;28;20049;-73
2022/07/17 06:54:04;;;;;;;4.95;1.10;;;22.20;53.10;;;;;;5009729;28;20129;-73
2022/07/17 06:56:31;;;;;;;2.50;1.10;;;22.20;53.10;;;;;;5010655;28;20081;-72
2022/07/17 06:58:58;;;;;;;1.38;1.08;;;22.30;53.10;;;;;;5011915;28;20056;-72
2022/07/17 07:01:25;;;;;;;2.33;1.17;;;22.40;53.10;;;;;;5011687;28;20448;-72
2022/07/17 07:03:51;;;;;;;2.30;1.20;;;22.40;53.10;;;;;;5010838;28;20056;-73
2022/07/17 07:06:20;;;;;;;2.13;1.17;;;22.40;53.40;;;;;;5010259;28;20045;-72
2022/07/17 07:08:47;;;;;;;5.05;1.20;;;22.40;52.70;;;;;;5011354;28;20070;-72
2022/07/17 07:11:14;;;;;;;3.22;1.35;;;22.40;52.50;;;;;;5009880;28;20403;-72
2022/07/17 07:13:40;;;;;;;4.15;1.30;;;22.40;52.50;;;;;;5011387;28;20112;-73
2022/07/17 07:16:07;;;;;;;6.05;1.35;;;22.30;52.50;;;;;;5010217;28;20141;-73
2022/07/17 07:18:35;;;;;;;3.95;1.20;;;22.30;52.60;;;;;;5010090;28;20049;-72
2022/07/17 07:21:02;;;;;;;6.13;1.58;;;22.30;52.70;;;;;;5010181;28;20053;-72
2022/07/17 07:23:30;;;;;;;7.55;1.27;;;22.20;52.80;;;;;;5010221;28;20567;-72
2022/07/17 07:25:57;;;;;;;4.35;1.30;;;22.00;54.50;;;;;;5010179;28;20137;-72
2022/07/17 07:28:24;;;;;;;20.88;2.38;;;22.20;52.80;;;;;;5009356;28;20406;-72
2022/07/17 07:30:51;;;;;;;8.25;1.42;;;22.10;52.80;;;;;;5009063;28;20437;-72
2022/07/17 07:33:17;;;;;;;2.67;1.20;;;22.10;52.90;;;;;;5010394;28;20042;-72
2022/07/17 07:35:45;;;;;;;4.63;1.30;;;22.00;52.90;;;;;;5010212;28;20060;-72
2022/07/17 07:38:12;;;;;;;3.78;1.20;;;22.00;53.00;;;;;;5010206;28;20081;-73
2022/07/17 07:40:40;;;;;;;4.63;1.35;;;22.00;53.10;;;;;;5009667;28;20042;-73
2022/07/17 07:43:07;;;;;;;5.75;1.38;;;22.00;53.10;;;;;;5010025;28;20056;-72
2022/07/17 07:45:34;;;;;;;4.43;1.13;;;21.90;53.10;;;;;;5010489;28;20069;-72
2022/07/17 07:48:01;;;;;;;3.75;1.50;;;21.90;53.10;;;;;;5009567;28;20546;-72
2022/07/17 07:50:28;;;;;;;3.78;1.10;;;21.90;53.20;;;;;;5010880;28;20050;-72
2022/07/17 07:52:55;;;;;;;1.50;1.00;;;21.90;53.20;;;;;;5010073;28;20050;-72
2022/07/17 07:55:22;;;;;;;3.08;1.10;;;21.90;53.20;;;;;;5009234;28;20141;-72
2022/07/17 07:57:50;;;;;;;5.00;1.60;;;21.90;53.20;;;;;;5008618;28;20461;-72
2022/07/17 08:00:17;;;;;;;3.90;1.63;;;21.90;53.20;;;;;;5009004;28;20146;-72
2022/07/17 08:02:44;;;;;;;1.98;0.85;;;21.80;53.20;;;;;;5009941;28;20587;-72
2022/07/17 08:05:11;;;;;;;1.75;1.08;;;21.80;53.20;;;;;;5008946;28;20145;-72
2022/07/17 08:07:38;;;;;;;3.90;1.00;;;21.90;53.20;;;;;;5009225;28;20049;-72
2022/07/17 08:10:05;;;;;;;4.88;1.08;;;21.90;53.20;;;;;;5008449;28;20056;-72
2022/07/17 08:12:32;;;;;;;2.70;1.05;;;21.90;53.20;;;;;;5007838;28;20635;-72
2022/07/17 08:15:07;;;;;;;3.08;1.17;;;21.90;53.30;;;;;;5008963;28;20128;-72
2022/07/17 08:17:38;;;;;;;2.58;1.30;;;21.90;53.80;;;;;;5009164;28;20054;-72
2022/07/17 08:20:07;;;;;;;1.92;1.00;;;21.90;53.30;;;;;;5008804;28;20053;-72
2022/07/17 08:22:35;;;;;;;2.70;1.10;;;21.80;53.20;;;;;;5008992;28;20388;-72
2022/07/17 08:25:04;;;;;;;2.28;1.10;;;21.90;53.20;;;;;;5008630;28;20048;-72
2022/07/17 08:27:35;;;;;;;2.67;1.10;;;21.90;53.20;;;;;;5009160;28;20137;-72
2022/07/17 08:30:04;;;;;;;4.43;1.30;;;21.90;53.20;;;;;;5009670;28;20141;-72
2022/07/17 08:32:31;;;;;;;2.65;1.00;;;21.90;53.30;;;;;;5021492;28;20057;-72
2022/07/17 08:34:58;;;;;;;4.85;1.40;;;21.80;53.30;;;;;;5028938;28;20053;-72
2022/07/17 08:37:27;;;;;;;2.78;1.10;;;21.90;53.30;;;;;;5014616;28;20080;-73
2022/07/17 08:39:54;;;;;;;3.60;1.30;;;21.90;53.40;;;;;;5008800;28;20073;-72
2022/07/17 08:42:21;;;;;;;1.90;1.20;;;22.00;53.30;;;;;;5009190;28;20064;-72
2022/07/17 08:44:47;;;;;;;7.45;1.65;;;22.00;53.30;;;;;;5009276;28;20054;-72
2022/07/17 08:47:15;;;;;;;1.90;1.10;;;22.10;53.30;;;;;;5012746;28;20053;-73
2022/07/17 08:49:45;;;;;;;1.58;1.00;;;22.20;53.20;;;;;;5012882;28;20066;-72
2022/07/17 08:52:12;;;;;;;4.05;1.42;;;22.20;53.10;;;;;;5013780;28;20038;-72
2022/07/17 08:54:39;;;;;;;4.05;1.02;;;22.40;53.10;;;;;;5012693;28;20058;-72
2022/07/17 08:57:05;;;;;;;2.22;1.00;;;22.40;53.10;;;;;;5012107;28;20058;-73
2022/07/17 08:59:32;;;;;;;2.13;1.10;;;22.40;53.00;;;;;;5014269;28;20054;-72
2022/07/17 09:01:59;;;;;;;2.40;0.95;;;22.40;53.00;;;;;;5013240;28;20136;-74
2022/07/17 09:04:27;;;;;;;2.35;1.38;;;22.50;53.00;;;;;;5013070;28;20057;-72
2022/07/17 09:07:00;;;;;;;5.43;1.30;;;22.50;52.90;;;;;;5012748;28;20120;-73
2022/07/17 09:09:28;;;;;;;2.20;1.05;;;22.50;52.80;;;;;;5014308;28;20518;-72
2022/07/17 09:11:55;;;;;;;2.03;1.05;;;22.60;52.80;;;;;;4125855;28;10000121;-72
2022/07/17 09:14:22;;;;;;;3.92;1.10;;;22.60;52.80;;;;;;4992523;28;20061;-72
2022/07/17 09:16:53;;;;;;;1.67;1.00;;;22.70;52.70;;;;;;4993748;28;20057;-72
2022/07/17 09:19:28;;;;;;;4.43;1.30;;;22.80;52.70;;;;;;4987315;28;20549;-72
2022/07/17 09:22:05;;;;;;;3.15;1.02;;;22.90;52.60;;;;;;4990410;28;20050;-72
2022/07/17 09:24:42;;;;;;;4.72;1.10;;;23.00;52.60;;;;;;4992857;28;20054;-72
2022/07/17 09:27:09;;;;;;;4.82;1.10;;;23.00;52.50;;;;;;4993354;28;20491;-72
2022/07/17 09:29:36;;;;;;;4.43;1.13;;;23.00;52.30;;;;;;4993148;28;20400;-72
2022/07/17 09:32:03;;;;;;;2.55;1.00;;;23.10;52.30;;;;;;4993661;28;20137;-72
2022/07/17 09:34:31;;;;;;;3.45;1.20;;;23.30;55.00;;;;;;4992458;28;20108;-73
2022/07/17 09:37:01;;;;;;;2.72;1.05;;;23.20;52.20;;;;;;4993889;28;20407;-72
2022/07/17 09:39:35;;;;;;;2.10;1.08;;;23.30;52.20;;;;;;4992772;28;20058;-72
2022/07/17 09:42:02;;;;;;;2.38;1.08;;;23.30;52.10;;;;;;4992715;28;20061;-72
2022/07/17 09:44:29;;;;;;;2.03;0.93;;;23.30;52.10;;;;;;4992450;28;20081;-72
2022/07/17 09:46:56;;;;;;;2.38;1.00;;;23.30;51.90;;;;;;4992432;28;20508;-72
2022/07/17 09:49:23;;;;;;;1.63;1.00;;;23.30;54.50;;;;;;4993521;28;20078;-72
2022/07/17 09:51:51;;;;;;;4.60;1.38;;;23.40;51.90;;;;;;4992719;28;20148;-72
2022/07/17 09:54:18;;;;;;;1.20;0.80;;;23.40;51.90;;;;;;4993064;28;20525;-72
2022/07/17 09:56:44;;;;;;;2.60;1.05;;;23.40;51.90;;;;;;4991116;28;20058;-72
2022/07/17 09:59:12;;;;;;;3.15;1.17;;;23.40;51.90;;;;;;4993026;28;20145;-72
2022/07/17 10:01:39;;;;;;;4.45;1.00;;;23.40;51.90;;;;;;4992681;28;20139;-72
2022/07/17 10:04:06;;;;;;;2.05;0.90;;;23.40;51.90;;;;;;4991211;28;20506;-72
2022/07/17 10:06:33;;;;;;;4.82;1.33;;;23.40;51.90;;;;;;4991460;28;20317;-72
2022/07/17 10:09:02;;;;;;;1.58;0.90;;;23.40;51.80;;;;;;4991455;28;20488;-72
2022/07/17 10:11:30;;;;;;;1.95;1.10;;;23.50;51.90;;;;;;4991068;28;20054;-72
2022/07/17 10:13:57;;;;;;;2.08;1.00;;;23.60;51.90;;;;;;4991649;28;20476;-72
2022/07/17 10:16:25;;;;;;;2.42;1.00;;;23.50;51.90;;;;;;4992584;28;20137;-72
2022/07/17 10:18:54;;;;;;;1.27;0.90;;;23.50;51.80;;;;;;4993353;28;20079;-72
2022/07/17 10:21:22;;;;;;;1.33;1.00;;;23.50;51.80;;;;;;4991799;28;20085;-72
2022/07/17 10:23:49;;;;;;;1.85;1.00;;;23.50;51.80;;;;;;4991865;28;20054;-72
2022/07/17 10:26:17;;;;;;;1.83;0.90;;;23.40;51.80;;;;;;4992053;28;20061;-72
2022/07/17 10:28:45;;;;;;;3.97;1.30;;;23.50;51.80;;;;;;4991676;28;20050;-72
2022/07/17 10:31:22;;;;;;;2.03;1.00;;;23.50;51.80;;;;;;4991434;28;20054;-73
2022/07/17 10:33:56;;;;;;;2.08;1.05;;;23.50;51.90;;;;;;4991117;28;20051;-72
2022/07/17 10:36:33;;;;;;;5.25;1.45;;;23.50;51.90;;;;;;4992532;28;20042;-72
2022/07/17 10:39:00;;;;;;;2.70;1.27;;;23.50;51.70;;;;;;4991454;28;20053;-72
2022/07/17 10:41:28;;;;;;;1.98;0.98;;;23.50;51.80;;;;;;4992336;28;20064;-72
2022/07/17 10:43:54;;;;;;;2.55;1.17;;;23.40;51.90;;;;;;4992221;28;20076;-72
2022/07/17 10:46:21;;;;;;;7.13;1.15;;;23.50;52.10;;;;;;4991161;28;20062;-72
2022/07/17 10:48:48;;;;;;;4.82;1.40;;;23.50;52.20;;;;;;4991685;28;20589;-73
2022/07/17 10:51:16;;;;;;;5.03;1.13;;;23.50;52.30;;;;;;4990802;28;20399;-73
2022/07/17 10:53:42;;;;;;;5.22;1.38;;;23.50;52.40;;;;;;4990939;28;20573;-73
2022/07/17 10:56:12;;;;;;;2.25;1.17;;;23.40;52.50;;;;;;4991610;28;20051;-73
2022/07/17 10:58:41;;;;;;;4.72;1.40;;;23.30;52.50;;;;;;4991267;28;20054;-72
2022/07/17 11:01:19;;;;;;;2.25;1.20;;;23.30;52.60;;;;;;4991978;28;20163;-73
2022/07/17 11:03:47;;;;;;;2.38;1.30;;;23.30;52.60;;;;;;4988661;28;20045;-73
2022/07/17 11:06:16;;;;;;;3.47;1.00;;;23.30;52.60;;;;;;4990582;28;20050;-72
2022/07/17 11:08:44;;;;;;;1.77;1.10;;;23.30;52.60;;;;;;4989930;28;20571;-72
2022/07/17 11:11:11;;;;;;;2.53;1.27;;;23.30;52.60;;;;;;4989382;28;20054;-73
2022/07/17 11:13:37;;;;;;;2.83;1.05;;;23.40;52.60;;;;;;4989483;28;20069;-72
2022/07/17 11:16:05;;;;;;;3.30;1.20;;;23.40;52.60;;;;;;4990760;28;20129;-75
2022/07/17 11:18:32;;;;;;;2.25;1.20;;;23.40;52.60;;;;;;5002912;28;20231;-73
2022/07/17 11:21:00;;;;;;;2.38;1.13;;;23.40;52.50;;;;;;4987842;28;20056;-73
2022/07/17 11:23:28;;;;;;;2.65;1.27;;;23.40;52.50;;;;;;4110376;28;10000390;-73
2022/07/17 11:25:56;;;;;;;2.30;1.15;;;23.40;52.50;;;;;;4990493;28;20559;-72
2022/07/17 11:28:31;;;;;;;3.00;1.20;;;23.40;52.50;;;;;;4990177;28;20061;-72
2022/07/17 11:30:58;;;;;;;;;;;23.40;52.50;;;;;;4991410;28;20050;-73
2022/07/17 11:33:26;;;;;;;8.00;1.40;;;23.30;52.60;;;;;;4990647;28;20008;-72
2022/07/17 11:35:54;;;;;;;2.50;1.50;;;23.40;52.60;;;;;;4991029;28;20089;-72
2022/07/17 11:38:25;;;;;;;2.70;1.20;;;23.40;52.50;;;;;;4119290;28;10000992;-73
2022/07/17 11:40:52;;;;;;;5.93;1.17;;;23.40;52.50;;;;;;5005719;28;20411;-72
2022/07/17 11:43:19;;;;;;;2.65;1.30;;;23.40;52.50;;;;;;5009810;28;20054;-72
2022/07/17 11:45:46;;;;;;;2.97;1.33;;;23.50;52.50;;;;;;5010395;28;20695;-73
2022/07/17 11:48:13;;;;;;;2.35;1.08;;;23.50;52.50;;;;;;5010432;28;20062;-73
2022/07/17 11:50:41;;;;;;;2.00;1.20;;;23.30;52.40;;;;;;5014010;28;20049;-73
2022/07/17 11:53:07;;;;;;;2.28;1.60;;;23.50;52.50;;;;;;4119073;28;10000406;-73
2022/07/17 11:55:37;;;;;;;1.60;0.90;;;23.50;52.50;;;;;;4989662;28;20138;-72
2022/07/17 11:58:04;;;;;;;2.08;1.10;;;23.50;52.50;;;;;;5005851;28;20551;-72
2022/07/17 12:00:31;;;;;;;1.85;1.17;;;23.50;52.50;;;;;;4990060;28;20148;-72
2022/07/17 12:03:01;;;;;;;1.10;1.00;;;23.50;53.00;;;;;;4989749;28;20051;-73
2022/07/17 12:05:28;;;;;;;1.45;1.10;;;23.40;52.30;;;;;;4990301;28;20058;-73
2022/07/17 12:07:56;;;;;;;4.45;1.20;;;23.50;52.60;;;;;;4990462;28;20085;-73
2022/07/17 12:10:24;;;;;;;2.00;1.10;;;23.30;52.50;;;;;;4991502;28;20057;-73
2022/07/17 12:12:56;;;;;;;3.70;1.30;;;23.40;52.80;;;;;;4990360;28;20050;-73
2022/07/17 12:15:23;;;;;;;3.30;1.15;;;23.40;52.80;;;;;;4989398;28;20069;-72
2022/07/17 12:17:49;;;;;;;5.15;1.40;;;23.50;52.90;;;;;;4990564;28;20407;-73
2022/07/17 12:20:16;;;;;;;6.60;1.45;;;23.30;52.80;;;;;;4990922;28;20085;-73
2022/07/17 12:22:46;;;;;;;7.25;1.45;;;23.50;53.00;;;;;;4993665;28;20134;-72
2022/07/17 12:25:24;;;;;;;3.53;1.45;;;23.40;53.00;;;;;;4995347;28;20596;-72
2022/07/17 12:27:51;;;;;;;5.38;1.83;;;23.50;53.10;;;;;;4995237;28;20053;-73
2022/07/17 12:30:18;;;;;;;7.13;1.65;;;23.50;53.10;;;;;;4992807;28;20566;-72
2022/07/17 12:32:44;;;;;;;6.72;1.90;;;23.50;53.10;;;;;;5008501;28;20046;-72
2022/07/17 12:35:11;;;;;;;6.28;1.90;;;23.50;53.10;;;;;;4992453;28;20050;-76
2022/07/17 12:37:38;;;;;;;8.68;2.00;;;23.50;53.10;;;;;;4993070;28;20061;-72
2022/07/17 12:40:06;;;;;;;9.82;2.00;;;23.40;53.10;;;;;;4993436;28;20056;-72
2022/07/17 12:42:34;;;;;;;6.75;1.98;;;23.40;53.10;;;;;;4993552;28;20054;-72
2022/07/17 12:45:01;;;;;;;10.23;2.30;;;23.40;53.10;;;;;;4992263;28;20137;-72
2022/07/17 12:47:28;;;;;;;11.45;1.90;;;23.30;53.10;;;;;;4993579;28;20133;-72